sensor_id;sensor_type;location;lat;lon;timestamp;temperature;humidity
14349;DHT22;7258;50.376;8.742;2023-04-21T00:01:02;7.10;99.90
14349;DHT22;7258;50.376;8.742;2023-04-21T00:04:35;7.10;99.90
14349;DHT22;7258;50.376;8.742;2023-04-21T00:07:08;7.10;99.90
14349;DHT22;7258;50.376;8.742;2023-04-21T00:09:50;7.10;99.90
14349;DHT22;7258;50.376;8.742;2023-04-21T00:12:09;7.10;99.90
14349;DHT22;7258;50.376;8.742;2023-04-21T00:14:22;7.10;99.90
14349;DHT22;7258;50.376;8.742;2023-04-21T00:16:38;7.10;99.90
14349;DHT22;7258;50.376;8.742;2023-04-21T00:21:47;7.10;99.90
14349;DHT22;7258;50.376;8.742;2023-04-21T00:24:29;7.10;99.90
14349;DHT22;7258;50.376;8.742;2023-04-21T00:27:13;7.10;99.90
14349;DHT22;7258;50.376;8.742;2023-04-21T00:29:41;7.10;99.90
14349;DHT22;7258;50.376;8.742;2023-04-21T00:32:55;7.10;99.90
14349;DHT22;7258;50.376;8.742;2023-04-21T00:35:06;7.10;99.90
14349;DHT22;7258;50.376;8.742;2023-04-21T00:41:03;7.10;99.90
14349;DHT22;7258;50.376;8.742;2023-04-21T00:43:22;7.10;99.90
14349;DHT22;7258;50.376;8.742;2023-04-21T00:46:05;7.10;99.90
14349;DHT22;7258;50.376;8.742;2023-04-21T00:48:21;7.10;99.90
14349;DHT22;7258;50.376;8.742;2023-04-21T00:51:05;7.10;99.90
14349;DHT22;7258;50.376;8.742;2023-04-21T00:53:46;7.10;99.90
14349;DHT22;7258;50.376;8.742;2023-04-21T00:56:36;7.10;99.90
14349;DHT22;7258;50.376;8.742;2023-04-21T00:58:58;7.10;99.90
14349;DHT22;7258;50.376;8.742;2023-04-21T01:01:33;7.10;99.90
14349;DHT22;7258;50.376;8.742;2023-04-21T01:07:38;7.10;99.90
14349;DHT22;7258;50.376;8.742;2023-04-21T01:10:13;7.10;99.90
14349;DHT22;7258;50.376;8.742;2023-04-21T01:13:35;7.20;99.90
14349;DHT22;7258;50.376;8.742;2023-04-21T01:15:55;7.10;99.90
14349;DHT22;7258;50.376;8.742;2023-04-21T01:19:09;7.10;99.90
14349;DHT22;7258;50.376;8.742;2023-04-21T01:25:38;7.20;99.90
14349;DHT22;7258;50.376;8.742;2023-04-21T01:28:45;7.20;99.90
14349;DHT22;7258;50.376;8.742;2023-04-21T01:31:04;7.10;99.90
14349;DHT22;7258;50.376;8.742;2023-04-21T01:33:56;7.10;99.90
14349;DHT22;7258;50.376;8.742;2023-04-21T01:36:20;7.10;99.90
14349;DHT22;7258;50.376;8.742;2023-04-21T01:41:38;7.10;99.90
14349;DHT22;7258;50.376;8.742;2023-04-21T01:47:35;7.00;99.90
14349;DHT22;7258;50.376;8.742;2023-04-21T01:50:05;7.00;99.90
14349;DHT22;7258;50.376;8.742;2023-04-21T01:53:08;6.90;99.90
14349;DHT22;7258;50.376;8.742;2023-04-21T01:55:27;6.90;99.90
14349;DHT22;7258;50.376;8.742;2023-04-21T01:57:32;6.90;99.90
14349;DHT22;7258;50.376;8.742;2023-04-21T02:00:07;6.80;99.90
14349;DHT22;7258;50.376;8.742;2023-04-21T02:02:49;6.80;99.90
14349;DHT22;7258;50.376;8.742;2023-04-21T02:05:32;6.80;99.90
14349;DHT22;7258;50.376;8.742;2023-04-21T02:08:22;6.90;99.90
14349;DHT22;7258;50.376;8.742;2023-04-21T02:10:48;6.90;99.90
14349;DHT22;7258;50.376;8.742;2023-04-21T02:13:21;6.90;99.90
14349;DHT22;7258;50.376;8.742;2023-04-21T02:15:40;6.90;99.90
14349;DHT22;7258;50.376;8.742;2023-04-21T02:18:22;6.90;99.90
14349;DHT22;7258;50.376;8.742;2023-04-21T02:20:57;7.00;99.90
14349;DHT22;7258;50.376;8.742;2023-04-21T02:23:33;7.00;99.90
14349;DHT22;7258;50.376;8.742;2023-04-21T02:26:33;7.00;99.90
14349;DHT22;7258;50.376;8.742;2023-04-21T02:29:07;7.00;99.90
14349;DHT22;7258;50.376;8.742;2023-04-21T02:31:50;7.10;99.90
14349;DHT22;7258;50.376;8.742;2023-04-21T02:34:40;7.00;99.90
14349;DHT22;7258;50.376;8.742;2023-04-21T02:36:59;7.10;99.90
14349;DHT22;7258;50.376;8.742;2023-04-21T02:39:23;7.10;99.90
14349;DHT22;7258;50.376;8.742;2023-04-21T02:41:43;7.10;99.90
14349;DHT22;7258;50.376;8.742;2023-04-21T02:44:08;7.10;99.90
14349;DHT22;7258;50.376;8.742;2023-04-21T02:46:59;7.10;99.90
14349;DHT22;7258;50.376;8.742;2023-04-21T02:52:35;7.10;99.90
14349;DHT22;7258;50.376;8.742;2023-04-21T02:55:17;7.10;99.90
14349;DHT22;7258;50.376;8.742;2023-04-21T02:57:49;7.10;99.90
14349;DHT22;7258;50.376;8.742;2023-04-21T03:02:37;7.20;99.90
14349;DHT22;7258;50.376;8.742;2023-04-21T03:05:10;7.20;99.90
14349;DHT22;7258;50.376;8.742;2023-04-21T03:07:28;7.20;99.90
14349;DHT22;7258;50.376;8.742;2023-04-21T03:10:05;7.20;99.90
14349;DHT22;7258;50.376;8.742;2023-04-21T03:13:02;7.20;99.90
14349;DHT22;7258;50.376;8.742;2023-04-21T03:15:30;7.20;99.90
14349;DHT22;7258;50.376;8.742;2023-04-21T03:18:02;7.20;99.90
14349;DHT22;7258;50.376;8.742;2023-04-21T03:23:18;7.20;99.90
14349;DHT22;7258;50.376;8.742;2023-04-21T03:25:26;7.20;99.90
14349;DHT22;7258;50.376;8.742;2023-04-21T03:28:32;7.20;99.90
14349;DHT22;7258;50.376;8.742;2023-04-21T03:30:41;7.20;99.90
14349;DHT22;7258;50.376;8.742;2023-04-21T03:33:06;7.20;99.90
14349;DHT22;7258;50.376;8.742;2023-04-21T03:35:09;7.30;99.90
14349;DHT22;7258;50.376;8.742;2023-04-21T03:37:37;7.30;99.90
14349;DHT22;7258;50.376;8.742;2023-04-21T03:40:43;7.30;99.90
14349;DHT22;7258;50.376;8.742;2023-04-21T03:43:34;7.20;99.90
14349;DHT22;7258;50.376;8.742;2023-04-21T03:46:16;7.30;99.90
14349;DHT22;7258;50.376;8.742;2023-04-21T03:48:29;7.20;99.90
14349;DHT22;7258;50.376;8.742;2023-04-21T03:54:50;7.30;99.90
14349;DHT22;7258;50.376;8.742;2023-04-21T03:57:07;7.30;99.90
14349;DHT22;7258;50.376;8.742;2023-04-21T04:02:50;7.30;99.90
14349;DHT22;7258;50.376;8.742;2023-04-21T04:05:15;7.30;99.90
14349;DHT22;7258;50.376;8.742;2023-04-21T04:10:42;7.30;99.90
14349;DHT22;7258;50.376;8.742;2023-04-21T04:13:17;7.30;99.90
14349;DHT22;7258;50.376;8.742;2023-04-21T04:16:00;7.30;99.90
14349;DHT22;7258;50.376;8.742;2023-04-21T04:18:51;7.30;99.90
14349;DHT22;7258;50.376;8.742;2023-04-21T04:21:07;7.30;99.90
14349;DHT22;7258;50.376;8.742;2023-04-21T04:26:51;7.30;99.90
14349;DHT22;7258;50.376;8.742;2023-04-21T04:30:20;7.30;99.90
14349;DHT22;7258;50.376;8.742;2023-04-21T04:32:39;7.30;99.90
14349;DHT22;7258;50.376;8.742;2023-04-21T04:34:44;7.30;99.90
14349;DHT22;7258;50.376;8.742;2023-04-21T04:37:24;7.30;99.90
14349;DHT22;7258;50.376;8.742;2023-04-21T04:39:52;7.40;99.90
14349;DHT22;7258;50.376;8.742;2023-04-21T04:42:25;7.40;99.90
14349;DHT22;7258;50.376;8.742;2023-04-21T04:50:33;7.40;99.90
14349;DHT22;7258;50.376;8.742;2023-04-21T04:52:37;7.50;99.90
14349;DHT22;7258;50.376;8.742;2023-04-21T04:55:17;7.50;99.90
14349;DHT22;7258;50.376;8.742;2023-04-21T04:57:52;7.50;99.90
14349;DHT22;7258;50.376;8.742;2023-04-21T05:00:28;7.50;99.90
14349;DHT22;7258;50.376;8.742;2023-04-21T05:03:18;7.50;99.90
14349;DHT22;7258;50.376;8.742;2023-04-21T05:05:36;7.60;99.90
14349;DHT22;7258;50.376;8.742;2023-04-21T05:07:43;7.60;99.90
14349;DHT22;7258;50.376;8.742;2023-04-21T05:13:30;7.70;99.90
14349;DHT22;7258;50.376;8.742;2023-04-21T05:16:29;7.80;99.90
14349;DHT22;7258;50.376;8.742;2023-04-21T05:19:27;7.80;99.90
14349;DHT22;7258;50.376;8.742;2023-04-21T05:22:16;7.80;99.90
14349;DHT22;7258;50.376;8.742;2023-04-21T05:27:36;7.90;99.90
14349;DHT22;7258;50.376;8.742;2023-04-21T05:29:52;7.90;99.90
14349;DHT22;7258;50.376;8.742;2023-04-21T05:32:03;7.90;99.90
14349;DHT22;7258;50.376;8.742;2023-04-21T05:34:07;7.90;99.90
14349;DHT22;7258;50.376;8.742;2023-04-21T05:36:10;7.90;99.90
14349;DHT22;7258;50.376;8.742;2023-04-21T05:38:15;7.90;99.90
14349;DHT22;7258;50.376;8.742;2023-04-21T05:40:18;8.00;99.90
14349;DHT22;7258;50.376;8.742;2023-04-21T05:42:21;8.00;99.90
14349;DHT22;7258;50.376;8.742;2023-04-21T05:44:39;8.00;99.90
14349;DHT22;7258;50.376;8.742;2023-04-21T05:49:58;8.00;99.90
14349;DHT22;7258;50.376;8.742;2023-04-21T05:59:37;8.00;99.90
14349;DHT22;7258;50.376;8.742;2023-04-21T06:02:19;8.10;99.90
14349;DHT22;7258;50.376;8.742;2023-04-21T06:04:34;8.00;99.90
14349;DHT22;7258;50.376;8.742;2023-04-21T06:07:41;8.00;99.90
14349;DHT22;7258;50.376;8.742;2023-04-21T06:09:35;8.00;99.90
14349;DHT22;7258;50.376;8.742;2023-04-21T06:11:44;8.00;99.90
14349;DHT22;7258;50.376;8.742;2023-04-21T06:14:01;8.10;99.90
14349;DHT22;7258;50.376;8.742;2023-04-21T06:16:20;8.00;99.90
14349;DHT22;7258;50.376;8.742;2023-04-21T06:19:12;8.10;99.90
14349;DHT22;7258;50.376;8.742;2023-04-21T06:22:26;8.10;99.90
14349;DHT22;7258;50.376;8.742;2023-04-21T06:24:53;8.10;99.90
14349;DHT22;7258;50.376;8.742;2023-04-21T06:31:31;8.20;99.90
14349;DHT22;7258;50.376;8.742;2023-04-21T06:33:56;8.20;99.90
14349;DHT22;7258;50.376;8.742;2023-04-21T06:36:17;8.20;99.90
14349;DHT22;7258;50.376;8.742;2023-04-21T06:38:51;8.30;99.90
14349;DHT22;7258;50.376;8.742;2023-04-21T06:41:27;8.30;99.90
14349;DHT22;7258;50.376;8.742;2023-04-21T06:44:00;8.30;99.90
14349;DHT22;7258;50.376;8.742;2023-04-21T06:46:42;8.30;99.90
14349;DHT22;7258;50.376;8.742;2023-04-21T06:49:18;8.30;99.90
14349;DHT22;7258;50.376;8.742;2023-04-21T06:51:44;8.40;99.90
14349;DHT22;7258;50.376;8.742;2023-04-21T06:54:39;8.40;99.90
14349;DHT22;7258;50.376;8.742;2023-04-21T06:56:59;8.50;99.90
14349;DHT22;7258;50.376;8.742;2023-04-21T06:59:53;8.50;99.90
14349;DHT22;7258;50.376;8.742;2023-04-21T07:02:08;8.70;99.90
14349;DHT22;7258;50.376;8.742;2023-04-21T07:04:20;8.80;99.90
14349;DHT22;7258;50.376;8.742;2023-04-21T07:06:23;8.90;99.90
14349;DHT22;7258;50.376;8.742;2023-04-21T07:08:27;8.90;99.90
14349;DHT22;7258;50.376;8.742;2023-04-21T07:10:33;9.00;99.90
14349;DHT22;7258;50.376;8.742;2023-04-21T07:12:45;9.00;99.90
14349;DHT22;7258;50.376;8.742;2023-04-21T07:14:51;9.10;99.90
14349;DHT22;7258;50.376;8.742;2023-04-21T07:16:55;9.00;99.90
14349;DHT22;7258;50.376;8.742;2023-04-21T07:19:00;8.90;99.90
14349;DHT22;7258;50.376;8.742;2023-04-21T07:21:06;9.00;99.90
14349;DHT22;7258;50.376;8.742;2023-04-21T07:23:15;9.00;99.90
14349;DHT22;7258;50.376;8.742;2023-04-21T07:25:19;9.10;99.90
14349;DHT22;7258;50.376;8.742;2023-04-21T07:27:23;9.10;99.90
14349;DHT22;7258;50.376;8.742;2023-04-21T07:29:52;9.20;99.90
14349;DHT22;7258;50.376;8.742;2023-04-21T07:31:55;9.30;99.90
14349;DHT22;7258;50.376;8.742;2023-04-21T07:34:02;9.30;99.90
14349;DHT22;7258;50.376;8.742;2023-04-21T07:36:12;9.30;99.90
14349;DHT22;7258;50.376;8.742;2023-04-21T07:38:20;9.40;99.90
14349;DHT22;7258;50.376;8.742;2023-04-21T07:40:24;9.50;99.90
14349;DHT22;7258;50.376;8.742;2023-04-21T07:42:28;9.70;99.90
14349;DHT22;7258;50.376;8.742;2023-04-21T07:44:31;9.70;99.90
14349;DHT22;7258;50.376;8.742;2023-04-21T07:46:34;9.80;99.90
14349;DHT22;7258;50.376;8.742;2023-04-21T07:48:38;9.90;99.90
14349;DHT22;7258;50.376;8.742;2023-04-21T07:50:49;10.00;99.90
14349;DHT22;7258;50.376;8.742;2023-04-21T07:52:54;10.00;99.90
14349;DHT22;7258;50.376;8.742;2023-04-21T07:54:58;10.20;99.90
14349;DHT22;7258;50.376;8.742;2023-04-21T07:57:03;10.40;99.90
14349;DHT22;7258;50.376;8.742;2023-04-21T07:59:08;10.40;99.90
14349;DHT22;7258;50.376;8.742;2023-04-21T08:01:14;10.40;99.90
14349;DHT22;7258;50.376;8.742;2023-04-21T08:03:19;10.40;99.90
14349;DHT22;7258;50.376;8.742;2023-04-21T08:05:25;10.30;99.90
14349;DHT22;7258;50.376;8.742;2023-04-21T08:07:35;10.20;99.90
14349;DHT22;7258;50.376;8.742;2023-04-21T08:09:38;10.10;99.90
14349;DHT22;7258;50.376;8.742;2023-04-21T08:11:41;10.10;99.90
14349;DHT22;7258;50.376;8.742;2023-04-21T08:13:45;10.10;99.90
14349;DHT22;7258;50.376;8.742;2023-04-21T08:15:48;10.10;99.90
14349;DHT22;7258;50.376;8.742;2023-04-21T08:17:51;10.10;99.90
14349;DHT22;7258;50.376;8.742;2023-04-21T08:19:55;10.20;99.90
14349;DHT22;7258;50.376;8.742;2023-04-21T08:22:00;10.20;99.90
14349;DHT22;7258;50.376;8.742;2023-04-21T08:24:05;10.40;99.90
14349;DHT22;7258;50.376;8.742;2023-04-21T08:26:09;10.60;99.90
14349;DHT22;7258;50.376;8.742;2023-04-21T08:28:13;10.70;99.90
14349;DHT22;7258;50.376;8.742;2023-04-21T08:30:16;10.90;99.90
14349;DHT22;7258;50.376;8.742;2023-04-21T08:32:20;11.00;99.90
14349;DHT22;7258;50.376;8.742;2023-04-21T08:34:27;11.20;99.90
14349;DHT22;7258;50.376;8.742;2023-04-21T08:36:30;11.30;99.90
14349;DHT22;7258;50.376;8.742;2023-04-21T08:38:33;11.40;99.90
14349;DHT22;7258;50.376;8.742;2023-04-21T08:40:38;11.70;99.90
14349;DHT22;7258;50.376;8.742;2023-04-21T08:42:43;11.90;99.90
14349;DHT22;7258;50.376;8.742;2023-04-21T08:44:49;12.20;99.90
14349;DHT22;7258;50.376;8.742;2023-04-21T08:46:53;12.60;99.90
14349;DHT22;7258;50.376;8.742;2023-04-21T08:48:57;12.80;99.90
14349;DHT22;7258;50.376;8.742;2023-04-21T08:51:01;13.10;99.90
14349;DHT22;7258;50.376;8.742;2023-04-21T08:53:04;13.30;99.90
14349;DHT22;7258;50.376;8.742;2023-04-21T08:55:10;13.40;99.90
14349;DHT22;7258;50.376;8.742;2023-04-21T08:57:15;13.60;99.90
14349;DHT22;7258;50.376;8.742;2023-04-21T08:59:18;13.70;99.90
14349;DHT22;7258;50.376;8.742;2023-04-21T09:01:22;13.60;99.90
14349;DHT22;7258;50.376;8.742;2023-04-21T09:03:26;13.40;99.90
14349;DHT22;7258;50.376;8.742;2023-04-21T09:05:31;13.30;99.90
14349;DHT22;7258;50.376;8.742;2023-04-21T09:07:36;13.20;99.90
14349;DHT22;7258;50.376;8.742;2023-04-21T09:09:52;13.30;99.90
14349;DHT22;7258;50.376;8.742;2023-04-21T09:11:56;13.20;99.90
14349;DHT22;7258;50.376;8.742;2023-04-21T09:14:00;13.30;99.90
14349;DHT22;7258;50.376;8.742;2023-04-21T09:16:13;13.50;99.90
14349;DHT22;7258;50.376;8.742;2023-04-21T09:18:18;13.80;99.90
14349;DHT22;7258;50.376;8.742;2023-04-21T09:20:23;14.00;99.90
14349;DHT22;7258;50.376;8.742;2023-04-21T09:22:28;14.30;99.90
14349;DHT22;7258;50.376;8.742;2023-04-21T09:24:32;14.70;99.90
14349;DHT22;7258;50.376;8.742;2023-04-21T09:26:35;14.90;99.90
14349;DHT22;7258;50.376;8.742;2023-04-21T09:28:42;15.10;99.90
14349;DHT22;7258;50.376;8.742;2023-04-21T09:30:46;15.10;99.90
14349;DHT22;7258;50.376;8.742;2023-04-21T09:32:57;14.90;99.90
14349;DHT22;7258;50.376;8.742;2023-04-21T09:35:00;14.70;99.90
14349;DHT22;7258;50.376;8.742;2023-04-21T09:37:03;14.60;99.90
14349;DHT22;7258;50.376;8.742;2023-04-21T09:39:06;14.60;99.90
14349;DHT22;7258;50.376;8.742;2023-04-21T09:41:16;14.50;99.90
14349;DHT22;7258;50.376;8.742;2023-04-21T09:43:19;14.50;99.90
14349;DHT22;7258;50.376;8.742;2023-04-21T09:45:26;14.50;99.90
14349;DHT22;7258;50.376;8.742;2023-04-21T09:47:42;14.50;99.90
14349;DHT22;7258;50.376;8.742;2023-04-21T09:49:53;14.50;99.90
14349;DHT22;7258;50.376;8.742;2023-04-21T09:51:57;14.40;99.90
14349;DHT22;7258;50.376;8.742;2023-04-21T09:54:11;14.40;99.90
14349;DHT22;7258;50.376;8.742;2023-04-21T09:56:32;14.40;99.90
14349;DHT22;7258;50.376;8.742;2023-04-21T09:58:46;14.40;99.90
14349;DHT22;7258;50.376;8.742;2023-04-21T10:00:51;14.70;99.90
14349;DHT22;7258;50.376;8.742;2023-04-21T10:02:57;14.90;99.90
14349;DHT22;7258;50.376;8.742;2023-04-21T10:05:04;15.20;99.90
14349;DHT22;7258;50.376;8.742;2023-04-21T10:07:09;15.30;99.90
14349;DHT22;7258;50.376;8.742;2023-04-21T10:09:14;15.30;99.90
14349;DHT22;7258;50.376;8.742;2023-04-21T10:11:18;15.30;99.90
14349;DHT22;7258;50.376;8.742;2023-04-21T10:13:21;15.30;99.90
14349;DHT22;7258;50.376;8.742;2023-04-21T10:15:29;15.30;99.90
14349;DHT22;7258;50.376;8.742;2023-04-21T10:17:34;15.30;99.90
14349;DHT22;7258;50.376;8.742;2023-04-21T10:19:49;15.20;99.90
14349;DHT22;7258;50.376;8.742;2023-04-21T10:21:54;15.10;99.90
14349;DHT22;7258;50.376;8.742;2023-04-21T10:23:58;15.10;99.90
14349;DHT22;7258;50.376;8.742;2023-04-21T10:26:03;15.10;99.90
14349;DHT22;7258;50.376;8.742;2023-04-21T10:28:07;15.00;99.90
14349;DHT22;7258;50.376;8.742;2023-04-21T10:30:20;14.90;99.90
14349;DHT22;7258;50.376;8.742;2023-04-21T10:32:38;14.80;99.90
14349;DHT22;7258;50.376;8.742;2023-04-21T10:34:43;14.80;99.90
14349;DHT22;7258;50.376;8.742;2023-04-21T10:39:24;14.80;99.90
14349;DHT22;7258;50.376;8.742;2023-04-21T10:41:29;14.80;99.90
14349;DHT22;7258;50.376;8.742;2023-04-21T10:43:42;15.00;99.90
14349;DHT22;7258;50.376;8.742;2023-04-21T10:45:48;15.30;99.90
14349;DHT22;7258;50.376;8.742;2023-04-21T10:47:52;15.70;99.90
14349;DHT22;7258;50.376;8.742;2023-04-21T10:49:55;16.00;99.90
14349;DHT22;7258;50.376;8.742;2023-04-21T10:52:06;16.30;99.90
14349;DHT22;7258;50.376;8.742;2023-04-21T10:54:13;16.50;99.90
14349;DHT22;7258;50.376;8.742;2023-04-21T10:56:16;16.70;99.90
14349;DHT22;7258;50.376;8.742;2023-04-21T10:58:20;16.80;99.90
14349;DHT22;7258;50.376;8.742;2023-04-21T11:00:26;16.90;99.90
14349;DHT22;7258;50.376;8.742;2023-04-21T11:02:29;16.80;99.90
14349;DHT22;7258;50.376;8.742;2023-04-21T11:04:35;16.70;99.90
14349;DHT22;7258;50.376;8.742;2023-04-21T11:06:41;16.50;99.90
14349;DHT22;7258;50.376;8.742;2023-04-21T11:08:57;16.40;99.90
14349;DHT22;7258;50.376;8.742;2023-04-21T11:11:00;16.40;99.90
14349;DHT22;7258;50.376;8.742;2023-04-21T11:13:03;16.40;99.90
14349;DHT22;7258;50.376;8.742;2023-04-21T11:15:08;16.40;99.90
14349;DHT22;7258;50.376;8.742;2023-04-21T11:17:13;16.50;99.90
14349;DHT22;7258;50.376;8.742;2023-04-21T11:19:16;16.70;99.90
14349;DHT22;7258;50.376;8.742;2023-04-21T11:21:21;16.90;99.90
14349;DHT22;7258;50.376;8.742;2023-04-21T11:23:25;17.10;99.90
14349;DHT22;7258;50.376;8.742;2023-04-21T11:25:29;17.30;99.90
14349;DHT22;7258;50.376;8.742;2023-04-21T11:27:32;17.50;99.90
14349;DHT22;7258;50.376;8.742;2023-04-21T11:29:35;17.70;99.90
14349;DHT22;7258;50.376;8.742;2023-04-21T11:31:41;17.90;99.90
14349;DHT22;7258;50.376;8.742;2023-04-21T11:33:44;17.90;99.90
14349;DHT22;7258;50.376;8.742;2023-04-21T11:35:49;17.70;99.90
14349;DHT22;7258;50.376;8.742;2023-04-21T11:38:03;17.70;99.90
14349;DHT22;7258;50.376;8.742;2023-04-21T11:40:08;17.80;99.90
14349;DHT22;7258;50.376;8.742;2023-04-21T11:42:20;17.80;99.90
14349;DHT22;7258;50.376;8.742;2023-04-21T11:44:33;17.70;99.90
14349;DHT22;7258;50.376;8.742;2023-04-21T11:46:36;17.50;99.90
14349;DHT22;7258;50.376;8.742;2023-04-21T11:48:39;17.30;99.90
14349;DHT22;7258;50.376;8.742;2023-04-21T11:50:46;17.20;99.90
14349;DHT22;7258;50.376;8.742;2023-04-21T11:52:49;16.90;99.90
14349;DHT22;7258;50.376;8.742;2023-04-21T11:54:55;16.90;99.90
14349;DHT22;7258;50.376;8.742;2023-04-21T11:56:59;16.80;99.90
14349;DHT22;7258;50.376;8.742;2023-04-21T11:59:07;16.70;99.90
14349;DHT22;7258;50.376;8.742;2023-04-21T12:01:14;16.80;99.90
14349;DHT22;7258;50.376;8.742;2023-04-21T12:03:18;16.90;99.90
14349;DHT22;7258;50.376;8.742;2023-04-21T12:05:22;17.00;99.90
14349;DHT22;7258;50.376;8.742;2023-04-21T12:07:25;17.10;99.90
14349;DHT22;7258;50.376;8.742;2023-04-21T12:09:28;17.00;99.90
14349;DHT22;7258;50.376;8.742;2023-04-21T12:11:32;17.00;99.90
14349;DHT22;7258;50.376;8.742;2023-04-21T12:13:35;17.10;99.90
14349;DHT22;7258;50.376;8.742;2023-04-21T12:15:44;17.10;99.90
14349;DHT22;7258;50.376;8.742;2023-04-21T12:17:48;17.20;99.90
14349;DHT22;7258;50.376;8.742;2023-04-21T12:19:52;17.30;99.90
14349;DHT22;7258;50.376;8.742;2023-04-21T12:21:55;17.40;99.90
14349;DHT22;7258;50.376;8.742;2023-04-21T12:23:58;17.60;99.90
14349;DHT22;7258;50.376;8.742;2023-04-21T12:26:01;17.70;99.90
14349;DHT22;7258;50.376;8.742;2023-04-21T12:28:07;17.80;99.90
14349;DHT22;7258;50.376;8.742;2023-04-21T12:30:11;17.70;99.90
14349;DHT22;7258;50.376;8.742;2023-04-21T12:32:15;17.80;99.90
14349;DHT22;7258;50.376;8.742;2023-04-21T12:34:19;17.90;99.90
14349;DHT22;7258;50.376;8.742;2023-04-21T12:36:23;18.10;99.90
14349;DHT22;7258;50.376;8.742;2023-04-21T12:38:28;18.20;99.90
14349;DHT22;7258;50.376;8.742;2023-04-21T12:40:31;18.30;99.90
14349;DHT22;7258;50.376;8.742;2023-04-21T12:42:34;18.40;99.90
14349;DHT22;7258;50.376;8.742;2023-04-21T12:44:39;18.50;99.90
14349;DHT22;7258;50.376;8.742;2023-04-21T12:46:42;18.70;99.90
14349;DHT22;7258;50.376;8.742;2023-04-21T12:48:46;18.90;99.90
14349;DHT22;7258;50.376;8.742;2023-04-21T12:50:50;19.10;99.90
14349;DHT22;7258;50.376;8.742;2023-04-21T12:52:52;19.20;99.90
14349;DHT22;7258;50.376;8.742;2023-04-21T12:54:56;19.20;99.90
14349;DHT22;7258;50.376;8.742;2023-04-21T12:56:59;19.20;99.90
14349;DHT22;7258;50.376;8.742;2023-04-21T12:59:02;19.20;99.90
14349;DHT22;7258;50.376;8.742;2023-04-21T13:01:05;19.10;99.90
14349;DHT22;7258;50.376;8.742;2023-04-21T13:03:08;18.80;99.90
14349;DHT22;7258;50.376;8.742;2023-04-21T13:05:13;18.70;99.90
14349;DHT22;7258;50.376;8.742;2023-04-21T13:07:16;18.60;99.90
14349;DHT22;7258;50.376;8.742;2023-04-21T13:09:22;18.40;99.90
14349;DHT22;7258;50.376;8.742;2023-04-21T13:11:25;18.30;99.90
14349;DHT22;7258;50.376;8.742;2023-04-21T13:13:28;18.30;99.90
14349;DHT22;7258;50.376;8.742;2023-04-21T13:15:31;18.30;99.90
14349;DHT22;7258;50.376;8.742;2023-04-21T13:17:34;18.40;99.90
14349;DHT22;7258;50.376;8.742;2023-04-21T13:19:37;18.40;99.90
14349;DHT22;7258;50.376;8.742;2023-04-21T13:21:42;18.30;99.90
14349;DHT22;7258;50.376;8.742;2023-04-21T13:23:45;18.10;99.90
14349;DHT22;7258;50.376;8.742;2023-04-21T13:25:48;18.20;99.90
14349;DHT22;7258;50.376;8.742;2023-04-21T13:27:51;18.40;99.90
14349;DHT22;7258;50.376;8.742;2023-04-21T13:29:55;18.50;99.90
14349;DHT22;7258;50.376;8.742;2023-04-21T13:31:58;18.40;99.90
14349;DHT22;7258;50.376;8.742;2023-04-21T13:34:01;18.20;99.90
14349;DHT22;7258;50.376;8.742;2023-04-21T13:36:05;18.10;99.90
14349;DHT22;7258;50.376;8.742;2023-04-21T13:38:13;17.60;99.90
14349;DHT22;7258;50.376;8.742;2023-04-21T13:40:16;17.60;99.90
14349;DHT22;7258;50.376;8.742;2023-04-21T13:42:19;17.60;99.90
14349;DHT22;7258;50.376;8.742;2023-04-21T13:44:22;17.70;99.90
14349;DHT22;7258;50.376;8.742;2023-04-21T13:46:25;17.80;99.90
14349;DHT22;7258;50.376;8.742;2023-04-21T13:48:28;17.80;99.90
14349;DHT22;7258;50.376;8.742;2023-04-21T13:50:31;17.90;99.90
14349;DHT22;7258;50.376;8.742;2023-04-21T13:52:36;18.00;99.90
14349;DHT22;7258;50.376;8.742;2023-04-21T13:54:41;18.10;99.90
14349;DHT22;7258;50.376;8.742;2023-04-21T13:56:44;18.20;99.90
14349;DHT22;7258;50.376;8.742;2023-04-21T13:58:47;18.30;99.90
14349;DHT22;7258;50.376;8.742;2023-04-21T14:00:50;18.40;99.90
14349;DHT22;7258;50.376;8.742;2023-04-21T14:02:54;18.50;99.90
14349;DHT22;7258;50.376;8.742;2023-04-21T14:04:57;18.60;99.90
14349;DHT22;7258;50.376;8.742;2023-04-21T14:07:01;18.50;99.90
14349;DHT22;7258;50.376;8.742;2023-04-21T14:09:04;18.50;99.90
14349;DHT22;7258;50.376;8.742;2023-04-21T14:11:09;18.60;99.90
14349;DHT22;7258;50.376;8.742;2023-04-21T14:13:12;18.60;99.90
14349;DHT22;7258;50.376;8.742;2023-04-21T14:15:35;18.60;99.90
14349;DHT22;7258;50.376;8.742;2023-04-21T14:17:38;18.60;99.90
14349;DHT22;7258;50.376;8.742;2023-04-21T14:19:41;18.60;99.90
14349;DHT22;7258;50.376;8.742;2023-04-21T14:21:53;18.80;99.90
14349;DHT22;7258;50.376;8.742;2023-04-21T14:24:41;19.10;99.90
14349;DHT22;7258;50.376;8.742;2023-04-21T14:27:13;19.20;99.90
14349;DHT22;7258;50.376;8.742;2023-04-21T14:29:27;19.60;99.90
14349;DHT22;7258;50.376;8.742;2023-04-21T14:31:35;19.80;99.90
14349;DHT22;7258;50.376;8.742;2023-04-21T14:33:49;19.90;99.90
14349;DHT22;7258;50.376;8.742;2023-04-21T14:35:53;20.10;99.90
14349;DHT22;7258;50.376;8.742;2023-04-21T14:37:56;20.20;99.90
14349;DHT22;7258;50.376;8.742;2023-04-21T14:40:01;20.30;99.90
14349;DHT22;7258;50.376;8.742;2023-04-21T14:42:05;20.30;99.90
14349;DHT22;7258;50.376;8.742;2023-04-21T14:44:10;20.50;99.90
14349;DHT22;7258;50.376;8.742;2023-04-21T14:46:15;20.50;99.90
14349;DHT22;7258;50.376;8.742;2023-04-21T14:48:19;20.60;99.90
14349;DHT22;7258;50.376;8.742;2023-04-21T14:50:23;20.80;99.90
14349;DHT22;7258;50.376;8.742;2023-04-21T14:52:42;21.00;99.90
14349;DHT22;7258;50.376;8.742;2023-04-21T14:54:46;21.20;99.90
14349;DHT22;7258;50.376;8.742;2023-04-21T14:56:49;21.30;99.80
14349;DHT22;7258;50.376;8.742;2023-04-21T14:59:07;21.20;99.90
14349;DHT22;7258;50.376;8.742;2023-04-21T15:01:13;21.30;99.90
14349;DHT22;7258;50.376;8.742;2023-04-21T15:03:16;21.50;99.40
14349;DHT22;7258;50.376;8.742;2023-04-21T15:05:20;21.50;99.40
14349;DHT22;7258;50.376;8.742;2023-04-21T15:07:23;21.60;99.00
14349;DHT22;7258;50.376;8.742;2023-04-21T15:09:26;21.60;99.00
14349;DHT22;7258;50.376;8.742;2023-04-21T15:11:30;21.70;99.10
14349;DHT22;7258;50.376;8.742;2023-04-21T15:13:33;21.90;98.90
14349;DHT22;7258;50.376;8.742;2023-04-21T15:15:36;22.10;98.70
14349;DHT22;7258;50.376;8.742;2023-04-21T15:17:41;22.20;98.20
14349;DHT22;7258;50.376;8.742;2023-04-21T15:19:44;22.40;98.30
14349;DHT22;7258;50.376;8.742;2023-04-21T15:21:50;22.60;97.60
14349;DHT22;7258;50.376;8.742;2023-04-21T15:23:54;22.50;97.50
14349;DHT22;7258;50.376;8.742;2023-04-21T15:25:57;22.40;97.40
14349;DHT22;7258;50.376;8.742;2023-04-21T15:28:00;22.50;97.90
14349;DHT22;7258;50.376;8.742;2023-04-21T15:30:04;22.50;97.50
14349;DHT22;7258;50.376;8.742;2023-04-21T15:32:08;22.70;97.60
14349;DHT22;7258;50.376;8.742;2023-04-21T15:34:14;22.80;97.30
14349;DHT22;7258;50.376;8.742;2023-04-21T15:36:17;23.10;97.00
14349;DHT22;7258;50.376;8.742;2023-04-21T15:38:25;23.10;96.50
14349;DHT22;7258;50.376;8.742;2023-04-21T15:40:28;23.10;96.30
14349;DHT22;7258;50.376;8.742;2023-04-21T15:42:31;23.10;96.40
14349;DHT22;7258;50.376;8.742;2023-04-21T15:44:39;23.30;96.20